Time;durP1;ratioP1;P1;durP2;ratioP2;P2;SDS_P1;SDS_P2;PMS_P1;PMS_P2;Temp;Humidity;BMP_temperature;BMP_pressure;BME280_temperature;BME280_humidity;BME280_pressure;Samples;Min_cycle;Max_cycle;Signal;HPM_P1;HPM_P2
2023/11/13 00:02:01;;;;;;;9.68;7.70;;;12.00;96.70;;;;;;4876432;29;20060;-79
2023/11/13 00:04:29;;;;;;;10.52;7.30;;;12.00;96.70;;;;;;4891198;29;20044;-79
2023/11/13 00:06:58;;;;;;;10.73;7.93;;;12.00;96.70;;;;;;4893703;29;20053;-80
2023/11/13 00:09:27;;;;;;;8.48;6.95;;;12.00;96.70;;;;;;4910218;29;20052;-79
2023/11/13 00:11:55;;;;;;;9.23;7.75;;;12.00;96.70;;;;;;4918797;29;20095;-79
2023/11/13 00:14:23;;;;;;;11.57;8.13;;;12.00;96.70;;;;;;4903362;29;20055;-79
2023/11/13 00:16:51;;;;;;;9.85;7.75;;;12.00;96.70;;;;;;4880211;29;20076;-79
2023/11/13 00:19:19;;;;;;;10.48;6.93;;;11.90;96.70;;;;;;4886909;29;20052;-79
2023/11/13 00:21:47;;;;;;;8.82;6.88;;;11.90;96.70;;;;;;4888172;29;20056;-79
2023/11/13 00:24:17;;;;;;;10.25;7.43;;;11.90;96.70;;;;;;4885858;29;20055;-79
2023/11/13 00:26:45;;;;;;;8.82;7.03;;;12.00;96.70;;;;;;4897508;29;20079;-79
2023/11/13 00:29:13;;;;;;;10.82;7.45;;;12.00;96.70;;;;;;4917823;29;20048;-79
2023/11/13 00:31:41;;;;;;;13.55;8.48;;;11.90;96.70;;;;;;4886158;29;20815;-79
2023/11/13 00:34:10;;;;;;;10.90;7.72;;;11.90;96.70;;;;;;4886577;29;20151;-79
2023/11/13 00:36:37;;;;;;;10.45;8.07;;;11.90;96.70;;;;;;4873311;29;20147;-79
2023/11/13 00:39:10;;;;;;;11.20;8.27;;;11.80;96.70;;;;;;4888845;29;20071;-80
2023/11/13 00:41:41;;;;;;;8.65;7.72;;;11.70;96.70;;;;;;4883763;29;21535;-79
2023/11/13 00:44:09;;;;;;;9.80;8.23;;;11.70;96.70;;;;;;4890952;29;20055;-79
2023/11/13 00:46:37;;;;;;;10.93;8.52;;;11.70;96.70;;;;;;4886511;29;20044;-80
2023/11/13 00:49:06;;;;;;;10.32;8.18;;;11.70;96.70;;;;;;4890739;29;20052;-79
2023/11/13 00:51:34;;;;;;;9.43;8.00;;;11.70;96.70;;;;;;4888121;29;20059;-80
2023/11/13 00:54:03;;;;;;;11.30;8.30;;;11.70;96.70;;;;;;4883979;29;20056;-80
2023/11/13 00:56:31;;;;;;;12.85;8.48;;;11.70;96.70;;;;;;4885396;29;20510;-79
2023/11/13 00:59:01;;;;;;;15.68;8.90;;;11.70;96.70;;;;;;4909583;29;20044;-79
2023/11/13 01:01:29;;;;;;;15.52;8.88;;;11.70;96.70;;;;;;4912917;29;20047;-79
2023/11/13 01:03:57;;;;;;;11.98;8.93;;;11.70;96.70;;;;;;4892053;29;20055;-80
2023/11/13 01:06:26;;;;;;;14.75;9.30;;;11.70;96.70;;;;;;4885964;29;20056;-79
2023/11/13 01:08:55;;;;;;;14.20;9.30;;;11.70;96.70;;;;;;4903473;29;20044;-79
2023/11/13 01:11:23;;;;;;;12.73;9.38;;;11.70;96.70;;;;;;4881357;29;20047;-79
2023/11/13 01:13:51;;;;;;;12.63;9.70;;;11.70;96.70;;;;;;4884063;29;20099;-80
2023/11/13 01:16:20;;;;;;;15.65;9.20;;;11.80;96.70;;;;;;4902524;29;20077;-79
2023/11/13 01:18:53;;;;;;;13.75;9.65;;;11.80;96.70;;;;;;4889887;29;20054;-80
2023/11/13 01:21:22;;;;;;;12.18;9.50;;;11.80;96.70;;;;;;4883622;29;20052;-78
2023/11/13 01:23:50;;;;;;;13.55;9.20;;;11.80;96.70;;;;;;4888722;29;20040;-79
2023/11/13 01:26:18;;;;;;;16.00;9.18;;;11.80;96.70;;;;;;4915881;29;20044;-80
2023/11/13 01:28:46;;;;;;;17.08;10.32;;;11.80;96.70;;;;;;4889797;29;20087;-80
2023/11/13 01:31:15;;;;;;;16.02;10.20;;;11.80;96.70;;;;;;4900593;29;20053;-79
2023/11/13 01:33:45;;;;;;;12.52;9.73;;;11.90;96.70;;;;;;4905247;29;20055;-79
2023/11/13 01:36:13;;;;;;;12.80;8.82;;;11.90;96.70;;;;;;4896744;29;20059;-79
2023/11/13 01:38:41;;;;;;;14.07;9.73;;;11.90;96.70;;;;;;4891082;29;20044;-79
2023/11/13 01:41:09;;;;;;;13.10;8.95;;;11.80;96.70;;;;;;4893639;29;20076;-79
2023/11/13 01:43:37;;;;;;;14.02;9.75;;;11.90;96.70;;;;;;4910331;29;20051;-79
2023/11/13 01:46:09;;;;;;;14.75;10.07;;;11.90;96.70;;;;;;4889539;29;20054;-78
2023/11/13 01:48:38;;;;;;;13.55;9.23;;;11.90;96.70;;;;;;4905303;29;20062;-79
2023/11/13 01:51:08;;;;;;;14.13;9.15;;;11.90;96.70;;;;;;4895894;29;20059;-79
2023/11/13 01:53:36;;;;;;;13.80;9.50;;;11.90;96.70;;;;;;4887592;29;20056;-79
2023/11/13 01:56:05;;;;;;;13.85;9.05;;;11.90;96.70;;;;;;4912344;29;20044;-79
2023/11/13 01:58:34;;;;;;;11.25;8.80;;;12.00;96.70;;;;;;4885231;29;20052;-79
2023/11/13 02:01:03;;;;;;;14.68;9.95;;;12.00;96.70;;;;;;4924768;29;20054;-79
2023/11/13 02:03:34;;;;;;;13.30;9.73;;;12.00;96.70;;;;;;4877653;29;20052;-80
2023/11/13 02:06:07;;;;;;;14.32;9.60;;;12.00;96.70;;;;;;4906646;29;20463;-79
2023/11/13 02:08:35;;;;;;;16.48;10.32;;;12.00;96.70;;;;;;4875321;29;20061;-79
2023/11/13 02:11:08;;;;;;;17.02;10.57;;;12.00;96.70;;;;;;4887580;29;20372;-80
2023/11/13 02:13:38;;;;;;;16.38;10.30;;;11.90;96.70;;;;;;4893605;29;20083;-80
2023/11/13 02:16:09;;;;;;;15.55;10.68;;;11.90;96.70;;;;;;4887806;29;20147;-79
2023/11/13 02:18:38;;;;;;;15.13;10.05;;;11.90;96.70;;;;;;4908014;29;20086;-80
2023/11/13 02:21:08;;;;;;;14.02;9.85;;;11.90;96.70;;;;;;4868576;29;20156;-79
2023/11/13 02:23:38;;;;;;;13.55;9.55;;;11.90;96.70;;;;;;4900946;29;20048;-80
2023/11/13 02:26:14;;;;;;;13.00;9.38;;;11.90;96.70;;;;;;4893623;29;20057;-79
2023/11/13 02:28:43;;;;;;;13.13;8.90;;;12.00;96.70;;;;;;4874582;29;20055;-79
2023/11/13 02:31:11;;;;;;;13.30;8.60;;;12.00;96.70;;;;;;4895321;29;20099;-81
2023/11/13 02:33:39;;;;;;;12.68;8.95;;;12.00;96.70;;;;;;4910457;29;20418;-79
2023/11/13 02:36:08;;;;;;;12.45;8.02;;;11.90;96.70;;;;;;4885112;29;20051;-79
2023/11/13 02:38:38;;;;;;;13.75;9.65;;;12.00;96.70;;;;;;4884009;29;20052;-79
2023/11/13 02:41:07;;;;;;;12.20;9.05;;;12.00;96.70;;;;;;4885067;29;20677;-78
2023/11/13 02:43:35;;;;;;;10.65;7.75;;;12.00;96.70;;;;;;4879401;29;20601;-79
2023/11/13 02:46:03;;;;;;;11.88;7.55;;;11.90;96.70;;;;;;4907618;29;20117;-79
2023/11/13 02:48:32;;;;;;;11.73;8.60;;;11.90;96.70;;;;;;4883844;29;20040;-79
2023/11/13 02:51:00;;;;;;;11.23;7.95;;;11.90;96.70;;;;;;4890213;29;20055;-79
2023/11/13 02:53:28;;;;;;;9.98;7.53;;;11.80;96.70;;;;;;4889792;29;20520;-79
2023/11/13 02:55:58;;;;;;;10.25;7.82;;;11.80;96.70;;;;;;4890445;29;20045;-79
2023/11/13 02:58:26;;;;;;;10.70;7.93;;;11.80;96.70;;;;;;4901190;29;20079;-79
2023/11/13 03:00:54;;;;;;;10.63;8.50;;;11.80;96.70;;;;;;4889870;29;20051;-79
2023/11/13 03:03:25;;;;;;;12.48;9.02;;;11.80;96.70;;;;;;4917277;29;20058;-79
2023/11/13 03:05:53;;;;;;;14.02;9.38;;;11.80;96.70;;;;;;4875276;29;20071;-80
2023/11/13 03:08:21;;;;;;;11.38;9.00;;;11.80;96.70;;;;;;4881692;29;20052;-79
2023/11/13 03:10:51;;;;;;;11.65;8.93;;;11.80;96.70;;;;;;4888367;29;20502;-79
2023/11/13 03:13:21;;;;;;;11.38;8.07;;;11.80;96.70;;;;;;4875048;29;20049;-78
2023/11/13 03:15:50;;;;;;;10.65;8.85;;;11.80;96.70;;;;;;4876517;29;20107;-79
2023/11/13 03:18:18;;;;;;;14.05;9.40;;;11.80;96.70;;;;;;4885725;29;20070;-80
2023/11/13 03:20:47;;;;;;;13.23;9.95;;;11.70;96.70;;;;;;4884259;29;20048;-79
2023/11/13 03:23:15;;;;;;;11.30;9.55;;;11.80;96.70;;;;;;4906911;29;20845;-80
2023/11/13 03:25:43;;;;;;;12.18;9.65;;;11.70;96.70;;;;;;4913341;29;20052;-78
2023/11/13 03:28:12;;;;;;;9.63;8.38;;;11.80;96.70;;;;;;4884757;29;20631;-79
2023/11/13 03:30:42;;;;;;;11.05;8.77;;;11.80;96.70;;;;;;4891890;29;20044;-79
2023/11/13 03:33:10;;;;;;;9.38;8.20;;;11.80;96.70;;;;;;4878668;29;20514;-80
2023/11/13 03:35:38;;;;;;;12.57;9.35;;;11.80;96.70;;;;;;4885359;29;20421;-79
2023/11/13 03:38:06;;;;;;;12.32;9.52;;;11.80;96.70;;;;;;4900676;29;20080;-79
2023/11/13 03:40:34;;;;;;;13.00;10.00;;;11.80;96.70;;;;;;4891830;29;20054;-78
2023/11/13 03:43:02;;;;;;;13.38;10.23;;;11.70;96.70;;;;;;4904384;29;20177;-79
2023/11/13 03:45:30;;;;;;;14.23;10.25;;;11.70;96.70;;;;;;4902508;29;20067;-80
2023/11/13 03:48:00;;;;;;;12.95;9.77;;;11.70;96.70;;;;;;4904677;29;20041;-79
2023/11/13 03:50:28;;;;;;;11.98;8.75;;;11.70;96.70;;;;;;4888686;29;20052;-81
2023/11/13 03:52:56;;;;;;;12.50;9.15;;;11.70;96.70;;;;;;4875770;29;20116;-82
2023/11/13 03:55:24;;;;;;;10.98;9.00;;;11.70;96.70;;;;;;4876629;29;20052;-80
2023/11/13 03:57:52;;;;;;;9.73;7.75;;;11.70;96.70;;;;;;4913111;29;20044;-80
2023/11/13 04:00:21;;;;;;;10.30;7.53;;;11.60;96.70;;;;;;4892176;29;20100;-80
2023/11/13 04:02:49;;;;;;;8.48;7.13;;;11.60;96.70;;;;;;4886868;29;20104;-80
2023/11/13 04:05:19;;;;;;;9.65;6.65;;;11.60;96.70;;;;;;4886870;29;20044;-81
2023/11/13 04:07:47;;;;;;;6.70;6.00;;;11.60;96.70;;;;;;4917289;29;20066;-80
2023/11/13 04:10:17;;;;;;;9.77;6.63;;;11.60;96.70;;;;;;4876378;29;20056;-80
2023/11/13 04:12:45;;;;;;;7.60;5.82;;;11.50;96.70;;;;;;4878742;29;20507;-81
2023/11/13 04:15:14;;;;;;;7.78;5.57;;;11.50;96.70;;;;;;4892127;29;20099;-79
2023/11/13 04:17:42;;;;;;;7.82;6.18;;;11.50;96.70;;;;;;4887828;29;20048;-79
2023/11/13 04:20:13;;;;;;;7.20;4.95;;;11.50;96.70;;;;;;4902942;29;20052;-79
2023/11/13 04:22:42;;;;;;;6.15;4.55;;;11.40;96.70;;;;;;4878092;29;20155;-80
2023/11/13 04:25:11;;;;;;;8.57;4.95;;;11.40;96.70;;;;;;4905454;29;20513;-79
2023/11/13 04:27:41;;;;;;;9.30;4.88;;;11.40;96.70;;;;;;4890256;29;20051;-79
2023/11/13 04:30:09;;;;;;;5.75;4.72;;;11.50;96.70;;;;;;4875729;29;20045;-80
2023/11/13 04:32:38;;;;;;;5.95;4.93;;;11.40;96.70;;;;;;4880467;29;20052;-80
2023/11/13 04:35:06;;;;;;;5.00;4.43;;;11.30;96.70;;;;;;4873611;29;20164;-80
2023/11/13 04:37:35;;;;;;;5.25;4.50;;;11.40;96.70;;;;;;4876272;29;20123;-85
2023/11/13 04:40:05;;;;;;;7.38;4.95;;;11.40;96.70;;;;;;4884048;29;20048;-80
2023/11/13 04:42:34;;;;;;;6.20;4.13;;;11.40;96.70;;;;;;4871325;29;20404;-80
2023/11/13 04:45:02;;;;;;;6.90;4.85;;;11.40;96.70;;;;;;4897622;29;20108;-80
2023/11/13 04:47:30;;;;;;;6.40;5.28;;;11.50;96.70;;;;;;4883489;29;20423;-80
2023/11/13 04:49:59;;;;;;;6.68;4.57;;;11.50;96.70;;;;;;4891647;29;20044;-80
2023/11/13 04:52:30;;;;;;;6.85;5.45;;;11.60;96.70;;;;;;4908821;29;20048;-80
2023/11/13 04:54:58;;;;;;;7.28;5.28;;;11.60;96.70;;;;;;4889409;29;20714;-80
2023/11/13 04:57:27;;;;;;;6.32;5.32;;;11.70;96.70;;;;;;4885237;29;20595;-80
2023/11/13 04:59:56;;;;;;;6.32;5.28;;;11.70;96.70;;;;;;4893901;29;20048;-80
2023/11/13 05:02:24;;;;;;;7.38;5.45;;;11.70;96.70;;;;;;4895636;29;20752;-81
2023/11/13 05:04:52;;;;;;;7.00;5.60;;;11.70;96.70;;;;;;4892779;29;20656;-80
2023/11/13 05:07:20;;;;;;;8.45;5.85;;;11.60;96.70;;;;;;4897551;29;20056;-80
2023/11/13 05:09:48;;;;;;;6.50;5.18;;;11.60;96.70;;;;;;4886639;29;20044;-80
2023/11/13 05:12:16;;;;;;;6.60;5.38;;;11.70;96.70;;;;;;4906039;29;20054;-80
2023/11/13 05:14:48;;;;;;;7.90;6.22;;;11.70;96.70;;;;;;4894620;29;20055;-80
2023/11/13 05:17:16;;;;;;;6.38;5.20;;;11.70;96.70;;;;;;4880376;29;20051;-80
2023/11/13 05:19:44;;;;;;;7.30;5.18;;;11.70;96.70;;;;;;4891782;29;20408;-79
2023/11/13 05:22:12;;;;;;;5.68;5.07;;;11.80;96.70;;;;;;4887734;29;20048;-80
2023/11/13 05:24:41;;;;;;;7.25;6.20;;;11.80;96.70;;;;;;4892305;29;20064;-80
2023/11/13 05:27:09;;;;;;;6.57;5.28;;;11.80;96.70;;;;;;4883732;29;20559;-80
2023/11/13 05:29:37;;;;;;;7.38;5.93;;;11.80;96.70;;;;;;4895379;29;20056;-80
2023/11/13 05:32:06;;;;;;;6.40;5.55;;;11.90;96.70;;;;;;4888337;29;20055;-80
2023/11/13 05:34:35;;;;;;;6.43;5.28;;;11.80;96.70;;;;;;4887973;29;20056;-80
2023/11/13 05:37:04;;;;;;;6.57;5.72;;;11.90;96.70;;;;;;4890212;29;20044;-80
2023/11/13 05:39:32;;;;;;;5.90;5.10;;;11.80;96.70;;;;;;4876027;29;20049;-81
2023/11/13 05:42:00;;;;;;;7.68;5.47;;;11.90;96.70;;;;;;4912736;29;20461;-80
2023/11/13 05:44:28;;;;;;;6.78;4.88;;;11.90;96.70;;;;;;4879901;29;20067;-80
2023/11/13 05:46:56;;;;;;;6.20;5.25;;;11.90;96.70;;;;;;4883425;29;20083;-80
2023/11/13 05:49:26;;;;;;;8.15;5.80;;;11.90;96.70;;;;;;4917866;29;20091;-80
2023/11/13 05:51:54;;;;;;;5.85;5.25;;;12.00;96.70;;;;;;4890280;29;20499;-80
2023/11/13 05:54:22;;;;;;;6.35;5.68;;;12.00;96.70;;;;;;4876294;29;20051;-80
2023/11/13 05:56:50;;;;;;;7.30;5.35;;;12.00;96.70;;;;;;4873489;29;20079;-80
2023/11/13 05:59:18;;;;;;;6.63;5.13;;;11.90;96.70;;;;;;4894450;29;20104;-80
2023/11/13 06:01:48;;;;;;;5.72;5.13;;;11.90;96.70;;;;;;4906098;29;20071;-80
2023/11/13 06:04:17;;;;;;;6.53;5.55;;;11.80;96.70;;;;;;4887048;29;20052;-80
2023/11/13 06:06:47;;;;;;;6.95;5.57;;;11.80;96.70;;;;;;4888499;29;20061;-80
2023/11/13 06:09:15;;;;;;;9.27;5.53;;;11.80;96.70;;;;;;4895095;29;20053;-80
2023/11/13 06:11:45;;;;;;;6.18;5.05;;;11.80;96.70;;;;;;4887995;29;20503;-80
2023/11/13 06:14:14;;;;;;;6.47;4.80;;;11.80;96.70;;;;;;4899041;29;20542;-80
2023/11/13 06:16:41;;;;;;;6.13;5.53;;;11.80;96.70;;;;;;4898577;29;20044;-80
2023/11/13 06:19:10;;;;;;;5.88;5.20;;;11.90;96.70;;;;;;4888445;29;20443;-80
2023/11/13 06:21:38;;;;;;;7.05;5.53;;;11.90;96.70;;;;;;4908623;29;20095;-80
2023/11/13 06:24:10;;;;;;;6.80;5.25;;;11.90;96.70;;;;;;4889147;29;20059;-80
2023/11/13 06:26:39;;;;;;;5.57;4.80;;;11.80;96.70;;;;;;4894024;29;20044;-80
2023/11/13 06:29:07;;;;;;;6.72;5.95;;;11.90;96.70;;;;;;4903200;29;20498;-80
2023/11/13 06:31:35;;;;;;;7.35;5.47;;;11.90;96.70;;;;;;4888068;29;20139;-79
2023/11/13 06:34:04;;;;;;;7.82;5.25;;;11.80;96.70;;;;;;4910502;29;20080;-80
2023/11/13 06:36:32;;;;;;;7.05;5.90;;;11.80;96.70;;;;;;4904658;29;20629;-80
2023/11/13 06:39:01;;;;;;;6.38;4.35;;;11.80;96.70;;;;;;4909705;29;20051;-80
2023/11/13 06:41:30;;;;;;;5.22;4.72;;;11.80;96.70;;;;;;4889197;29;20360;-80
2023/11/13 06:44:04;;;;;;;8.70;4.88;;;11.70;96.70;;;;;;4881872;29;20479;-80
2023/11/13 06:46:32;;;;;;;5.13;4.35;;;11.80;96.70;;;;;;4883218;29;20063;-79
2023/11/13 06:49:00;;;;;;;6.10;4.60;;;11.70;96.70;;;;;;4887039;29;20058;-80
2023/11/13 06:51:29;;;;;;;10.80;5.30;;;11.70;96.70;;;;;;4906940;29;20051;-80
2023/11/13 06:53:57;;;;;;;5.30;3.85;;;11.70;96.70;;;;;;4904541;29;20044;-79
2023/11/13 06:56:26;;;;;;;5.18;3.75;;;11.80;96.70;;;;;;4885773;29;20093;-80
2023/11/13 06:58:56;;;;;;;6.03;3.97;;;11.80;96.70;;;;;;4889671;29;20048;-79
2023/11/13 07:01:25;;;;;;;6.05;4.35;;;11.80;96.70;;;;;;4902076;29;20058;-80
2023/11/13 07:03:53;;;;;;;6.38;4.07;;;11.80;96.70;;;;;;4889731;29;20053;-80
2023/11/13 07:06:24;;;;;;;7.32;4.43;;;11.80;96.70;;;;;;4905715;29;20139;-80
2023/11/13 07:08:52;;;;;;;7.65;4.22;;;11.80;96.70;;;;;;4909722;29;20125;-80
2023/11/13 07:11:22;;;;;;;5.82;3.92;;;11.70;96.70;;;;;;4900369;29;20059;-80
2023/11/13 07:13:50;;;;;;;4.65;3.88;;;11.80;96.70;;;;;;4885798;29;20044;-80
2023/11/13 07:16:20;;;;;;;5.82;4.07;;;11.80;96.70;;;;;;4893586;29;20099;-80
2023/11/13 07:18:49;;;;;;;6.45;4.13;;;11.80;96.70;;;;;;4874629;29;20072;-79
2023/11/13 07:21:17;;;;;;;6.18;3.85;;;11.80;96.70;;;;;;4874017;29;20040;-79
2023/11/13 07:23:46;;;;;;;5.22;4.13;;;11.80;96.70;;;;;;4906895;29;20048;-80
2023/11/13 07:26:14;;;;;;;8.23;4.00;;;11.80;96.70;;;;;;4900805;29;20063;-79
2023/11/13 07:28:42;;;;;;;4.78;4.28;;;11.90;96.70;;;;;;4886627;29;20063;-80
2023/11/13 07:31:10;;;;;;;6.45;4.30;;;11.90;96.70;;;;;;4887301;29;20746;-80
2023/11/13 07:33:40;;;;;;;8.60;5.07;;;11.90;96.70;;;;;;4889559;29;20093;-79
2023/11/13 07:36:11;;;;;;;7.47;5.10;;;11.90;96.70;;;;;;4892156;29;20052;-80
2023/11/13 07:38:42;;;;;;;6.95;4.95;;;11.90;96.70;;;;;;4883337;29;20060;-80
2023/11/13 07:41:13;;;;;;;8.38;5.57;;;11.90;96.70;;;;;;4893043;29;21219;-80
2023/11/13 07:43:42;;;;;;;8.48;5.43;;;12.00;96.70;;;;;;4887820;29;20827;-75
2023/11/13 07:46:14;;;;;;;8.35;5.78;;;12.00;96.70;;;;;;4898555;29;20053;-75
2023/11/13 07:48:44;;;;;;;7.07;5.05;;;12.00;96.70;;;;;;4889322;29;20140;-76
2023/11/13 07:51:12;;;;;;;9.65;6.10;;;12.10;96.70;;;;;;4888635;29;20689;-75
2023/11/13 07:53:42;;;;;;;11.18;6.72;;;12.10;96.70;;;;;;4884351;29;20056;-78
2023/11/13 07:56:11;;;;;;;7.53;6.00;;;12.10;96.70;;;;;;4894439;29;20036;-79
2023/11/13 07:58:39;;;;;;;9.05;6.00;;;12.10;96.70;;;;;;4881751;29;20524;-81
2023/11/13 08:01:09;;;;;;;12.73;9.85;;;12.10;96.70;;;;;;4908910;29;20040;-78
2023/11/13 08:03:37;;;;;;;9.80;6.78;;;12.10;96.70;;;;;;4889420;29;20048;-78
2023/11/13 08:06:07;;;;;;;9.13;6.15;;;12.20;96.70;;;;;;4878994;29;20056;-76
2023/11/13 08:08:35;;;;;;;8.35;6.57;;;12.20;96.70;;;;;;4890451;29;20712;-77
2023/11/13 08:11:06;;;;;;;6.75;5.40;;;12.20;96.70;;;;;;4873845;29;20056;-76
2023/11/13 08:13:35;;;;;;;6.50;5.47;;;12.20;96.70;;;;;;4896835;29;20055;-74
2023/11/13 08:16:04;;;;;;;7.85;5.90;;;12.30;96.70;;;;;;4872937;29;20045;-77
2023/11/13 08:18:33;;;;;;;7.32;5.63;;;12.30;96.70;;;;;;4867830;29;20056;-79
2023/11/13 08:21:01;;;;;;;8.05;5.85;;;12.20;96.70;;;;;;4888382;29;20040;-79
2023/11/13 08:23:31;;;;;;;7.20;5.13;;;12.20;96.70;;;;;;4873523;29;20056;-79
2023/11/13 08:26:00;;;;;;;8.43;5.75;;;12.20;96.70;;;;;;4901168;29;20040;-80
2023/11/13 08:28:31;;;;;;;9.07;8.18;;;12.20;96.70;;;;;;4883475;29;20036;-78
2023/11/13 08:31:00;;;;;;;10.00;8.27;;;12.10;96.70;;;;;;4902164;29;20053;-78
2023/11/13 08:33:34;;;;;;;7.15;6.45;;;12.10;96.70;;;;;;4889555;29;20388;-76
2023/11/13 08:36:04;;;;;;;6.43;5.82;;;12.10;96.70;;;;;;4875240;29;20044;-78
2023/11/13 08:38:35;;;;;;;6.53;5.82;;;12.10;96.70;;;;;;4879600;29;20058;-77
2023/11/13 08:41:04;;;;;;;7.47;5.68;;;12.10;96.70;;;;;;4854118;29;20119;-78
2023/11/13 08:43:33;;;;;;;6.88;5.97;;;12.10;96.70;;;;;;4875643;29;20072;-78
2023/11/13 08:46:01;;;;;;;9.50;5.90;;;12.20;96.70;;;;;;4873219;29;20782;-78
2023/11/13 08:48:29;;;;;;;8.07;6.20;;;12.20;96.70;;;;;;4886992;29;20048;-79
2023/11/13 08:50:59;;;;;;;6.65;5.93;;;12.20;96.70;;;;;;4902531;29;20486;-79
2023/11/13 08:53:29;;;;;;;8.07;6.60;;;12.20;96.70;;;;;;4890950;29;20059;-77
2023/11/13 08:55:59;;;;;;;7.25;6.30;;;12.20;96.70;;;;;;4884408;29;20578;-77
2023/11/13 08:58:28;;;;;;;10.40;9.18;;;12.20;96.70;;;;;;4879393;29;20053;-78
2023/11/13 09:00:57;;;;;;;7.93;5.68;;;12.30;96.70;;;;;;4875627;29;20123;-77
2023/11/13 09:03:29;;;;;;;6.75;6.03;;;12.30;96.70;;;;;;4875982;29;20094;-78
2023/11/13 09:05:58;;;;;;;7.03;6.03;;;12.30;96.70;;;;;;4875876;29;20509;-78
2023/11/13 09:08:27;;;;;;;7.82;6.45;;;12.40;96.70;;;;;;4886623;29;20063;-78
2023/11/13 09:10:55;;;;;;;15.23;7.68;;;12.40;96.70;;;;;;4905058;29;20041;-78
2023/11/13 09:13:25;;;;;;;9.13;6.93;;;12.40;96.70;;;;;;4903832;29;20216;-77
2023/11/13 09:15:53;;;;;;;10.23;6.43;;;12.40;96.70;;;;;;4900693;29;20049;-79
2023/11/13 09:18:26;;;;;;;8.32;6.47;;;12.40;96.70;;;;;;4925946;29;20523;-78
2023/11/13 09:20:55;;;;;;;6.18;5.15;;;12.40;96.70;;;;;;4890869;29;20119;-78
2023/11/13 09:23:23;;;;;;;8.38;7.03;;;12.50;96.70;;;;;;4876467;29;20485;-84
2023/11/13 09:25:51;;;;;;;7.18;6.00;;;12.50;96.70;;;;;;4890373;29;20148;-84
2023/11/13 09:28:20;;;;;;;8.32;6.22;;;12.50;96.70;;;;;;4908821;29;20044;-80
2023/11/13 09:30:49;;;;;;;7.97;6.05;;;12.60;96.70;;;;;;4876126;29;20052;-79
2023/11/13 09:33:18;;;;;;;8.10;6.88;;;12.60;96.70;;;;;;4895898;29;20052;-85
2023/11/13 09:35:47;;;;;;;7.60;6.78;;;12.70;96.70;;;;;;4897510;29;20040;-85
2023/11/13 09:38:15;;;;;;;8.10;7.30;;;12.70;96.70;;;;;;4897738;29;20060;-85
2023/11/13 09:40:43;;;;;;;8.75;6.90;;;12.70;96.70;;;;;;4902606;29;20039;-87
2023/11/13 09:43:15;;;;;;;7.68;6.90;;;12.70;96.70;;;;;;4897921;29;20508;-86
2023/11/13 09:45:51;;;;;;;10.40;8.10;;;12.70;96.70;;;;;;4916083;29;20087;-84
2023/11/13 09:48:30;;;;;;;10.15;8.95;;;12.70;96.70;;;;;;4886381;29;20057;-87
2023/11/13 09:50:59;;;;;;;10.73;9.23;;;12.70;96.70;;;;;;4911587;29;20472;-84
2023/11/13 09:53:28;;;;;;;9.15;7.82;;;12.80;96.70;;;;;;4892140;29;20116;-86
2023/11/13 09:55:57;;;;;;;8.55;6.90;;;12.80;96.70;;;;;;4881181;29;20099;-85
2023/11/13 09:58:26;;;;;;;10.60;8.65;;;12.90;96.70;;;;;;4890667;29;20131;-86
2023/11/13 10:00:55;;;;;;;8.93;7.22;;;12.90;96.70;;;;;;4893971;29;20052;-87
2023/11/13 10:03:25;;;;;;;8.45;7.65;;;12.90;96.70;;;;;;4893850;29;20076;-87
2023/11/13 10:05:53;;;;;;;9.32;7.05;;;12.90;96.70;;;;;;4913814;29;20056;-86
2023/11/13 10:08:22;;;;;;;7.28;5.95;;;13.00;96.70;;;;;;4881407;29;20107;-87
2023/11/13 10:10:52;;;;;;;7.32;6.35;;;13.00;96.70;;;;;;4881230;29;20526;-86
2023/11/13 10:13:23;;;;;;;8.35;6.57;;;13.00;96.70;;;;;;4870575;29;20572;-86
2023/11/13 10:15:52;;;;;;;6.57;5.75;;;13.00;96.70;;;;;;4878922;29;20068;-87
2023/11/13 10:18:26;;;;;;;9.32;6.35;;;12.90;96.70;;;;;;4914199;29;20044;-86
2023/11/13 10:20:59;;;;;;;9.55;6.13;;;12.90;96.70;;;;;;4888780;29;20676;-85
2023/11/13 10:23:36;;;;;;;6.82;6.00;;;13.00;96.70;;;;;;4914243;29;20040;-86
2023/11/13 10:26:04;;;;;;;10.65;5.88;;;13.00;96.70;;;;;;4896932;29;20591;-85
2023/11/13 10:28:37;;;;;;;8.75;5.95;;;13.00;96.70;;;;;;4886595;29;20052;-83
2023/11/13 10:31:12;;;;;;;7.05;6.03;;;13.00;96.70;;;;;;4913829;29;20052;-85
2023/11/13 10:33:59;;;;;;;6.50;5.38;;;13.00;96.70;;;;;;4894438;29;20052;-85
2023/11/13 10:36:28;;;;;;;6.82;5.15;;;13.00;96.70;;;;;;4893714;29;20057;-85
2023/11/13 10:39:00;;;;;;;6.45;5.50;;;12.90;96.70;;;;;;4896120;29;20072;-85
2023/11/13 10:41:33;;;;;;;7.05;5.63;;;12.90;96.70;;;;;;4889568;29;20139;-85
2023/11/13 10:44:21;;;;;;;5.88;4.93;;;12.90;96.70;;;;;;4896073;29;20147;-85
2023/11/13 10:46:49;;;;;;;5.85;5.07;;;12.90;96.70;;;;;;4893531;29;20073;-88
2023/11/13 10:49:20;;;;;;;7.13;5.95;;;12.90;96.70;;;;;;4895362;29;20451;-86
2023/11/13 10:51:52;;;;;;;6.03;5.28;;;12.90;96.70;;;;;;4906599;29;20067;-85
2023/11/13 10:54:23;;;;;;;6.90;5.55;;;12.90;96.70;;;;;;4896610;29;20040;-85
2023/11/13 10:56:54;;;;;;;7.53;5.43;;;12.90;96.70;;;;;;4880351;29;20090;-85
2023/11/13 10:59:22;;;;;;;6.80;5.10;;;13.00;96.70;;;;;;4895094;29;21087;-85
2023/11/13 11:01:54;;;;;;;5.20;4.55;;;13.00;96.70;;;;;;4912451;29;20712;-85
2023/11/13 11:04:26;;;;;;;5.65;4.15;;;13.00;96.70;;;;;;4896201;29;20133;-84
2023/11/13 11:06:57;;;;;;;7.30;3.58;;;13.00;96.70;;;;;;4877787;29;20128;-86
2023/11/13 11:09:27;;;;;;;7.90;3.65;;;13.00;96.70;;;;;;4893140;29;20135;-83
2023/11/13 11:11:55;;;;;;;7.97;4.20;;;13.10;96.70;;;;;;4896036;29;20051;-86
2023/11/13 11:14:34;;;;;;;8.18;4.10;;;13.10;96.70;;;;;;4895165;29;20101;-85
2023/11/13 11:17:08;;;;;;;6.72;3.80;;;13.10;96.70;;;;;;4912537;29;20048;-85
2023/11/13 11:19:44;;;;;;;5.20;3.40;;;13.10;96.70;;;;;;4891853;29;20037;-85
2023/11/13 11:22:23;;;;;;;4.50;3.30;;;13.10;96.70;;;;;;4904158;29;20052;-84
2023/11/13 11:25:13;;;;;;;3.90;2.95;;;13.10;96.70;;;;;;4912525;29;20654;-86
2023/11/13 11:27:44;;;;;;;6.60;3.80;;;13.10;96.70;;;;;;4892542;29;20104;-85
2023/11/13 11:30:32;;;;;;;5.35;3.78;;;13.10;96.70;;;;;;4887556;29;20044;-84
2023/11/13 11:33:04;;;;;;;5.30;4.07;;;13.20;96.70;;;;;;4911922;29;20071;-85
2023/11/13 11:35:37;;;;;;;4.88;3.83;;;13.20;96.70;;;;;;4894717;29;20099;-84
2023/11/13 11:38:18;;;;;;;4.47;3.55;;;13.20;96.70;;;;;;4892524;29;20072;-86
2023/11/13 11:40:48;;;;;;;7.63;5.35;;;13.20;96.70;;;;;;4892239;29;20064;-86
2023/11/13 11:43:18;;;;;;;7.35;5.60;;;13.20;96.70;;;;;;4889499;29;20076;-86
2023/11/13 11:45:51;;;;;;;6.40;5.22;;;13.30;96.70;;;;;;4894043;29;20048;-84
2023/11/13 11:48:23;;;;;;;5.60;3.97;;;13.20;96.70;;;;;;4895181;29;20040;-86
2023/11/13 11:50:56;;;;;;;3.97;3.58;;;13.20;96.70;;;;;;4876472;29;20048;-85
2023/11/13 11:53:24;;;;;;;5.32;4.30;;;13.20;96.70;;;;;;4872889;29;20048;-86
2023/11/13 11:55:52;;;;;;;5.13;4.18;;;13.20;96.70;;;;;;4890067;29;20299;-86
2023/11/13 11:58:20;;;;;;;4.53;4.05;;;13.30;96.70;;;;;;4902523;29;20142;-86
2023/11/13 12:00:49;;;;;;;4.20;3.72;;;13.30;96.70;;;;;;4894167;29;20449;-85
2023/11/13 12:03:18;;;;;;;6.53;4.10;;;13.30;96.70;;;;;;4876359;29;20117;-84
2023/11/13 12:05:48;;;;;;;5.55;4.47;;;13.20;96.70;;;;;;4890800;29;20418;-86
2023/11/13 12:08:19;;;;;;;5.55;4.50;;;13.20;96.70;;;;;;4886968;29;20048;-85
2023/11/13 12:10:48;;;;;;;5.68;5.18;;;13.30;96.70;;;;;;4891825;29;20055;-85
2023/11/13 12:13:19;;;;;;;5.43;4.90;;;13.40;96.70;;;;;;4871811;29;20048;-85
2023/11/13 12:15:48;;;;;;;5.93;4.47;;;13.50;96.70;;;;;;4891584;29;20044;-86
2023/11/13 12:18:17;;;;;;;8.23;5.28;;;13.40;96.70;;;;;;4890647;29;20543;-85
2023/11/13 12:20:46;;;;;;;6.13;5.53;;;13.50;96.70;;;;;;4894760;29;20658;-86
2023/11/13 12:23:15;;;;;;;5.70;5.20;;;13.50;96.70;;;;;;4894588;29;20139;-84
2023/11/13 12:25:45;;;;;;;6.60;5.68;;;13.60;96.70;;;;;;4878125;29;20072;-85
2023/11/13 12:28:14;;;;;;;9.65;6.07;;;13.70;96.70;;;;;;4879424;29;20062;-85
2023/11/13 12:30:43;;;;;;;6.60;5.10;;;13.80;96.70;;;;;;4911033;29;20491;-85
2023/11/13 12:33:12;;;;;;;7.55;5.30;;;13.80;96.70;;;;;;4879194;29;20075;-85
2023/11/13 12:35:40;;;;;;;7.47;6.63;;;13.90;96.70;;;;;;4911409;29;20538;-85
2023/11/13 12:38:09;;;;;;;7.93;5.63;;;13.80;96.70;;;;;;4894462;29;21070;-86
2023/11/13 12:40:38;;;;;;;6.40;5.15;;;13.80;96.70;;;;;;4894790;29;20063;-85
2023/11/13 12:43:08;;;;;;;8.30;5.57;;;13.80;96.70;;;;;;4884869;29;20056;-84
2023/11/13 12:45:36;;;;;;;6.97;5.70;;;13.80;96.70;;;;;;4891427;29;20063;-85
2023/11/13 12:48:06;;;;;;;7.88;6.00;;;13.80;96.70;;;;;;4894414;29;20063;-85
2023/11/13 12:50:38;;;;;;;8.70;7.30;;;13.80;96.70;;;;;;4903314;29;20074;-86
2023/11/13 12:53:11;;;;;;;7.60;6.20;;;13.80;96.70;;;;;;4894670;29;20077;-86
2023/11/13 12:55:43;;;;;;;6.75;6.05;;;13.80;96.70;;;;;;4893079;29;20040;-83